Manitowoc, WI (54220)

12:50 AM CDT on August 28, 2016 (GMT -0500)
Harvest Circle | | Change Station

Elev 662 ft 44.10 °N, 87.71 °W | Updated 4 minutes ago

Overcast
Overcast
64.6 °F
Feels Like 64.6 °F
N
0.0
Wind Variable Wind from North
Gusts 0.6 mph

Today
High -- | Low -- °F
--% Chance of Precip.
Yesterday
High -- | Low -- °F
Precip. -- in
Pressure 30.10 in
Visibility 3.0 miles
Clouds Mostly Cloudy 400 ft
Overcast 3100 ft
Dew Point 63 °F
Humidity 95%
Rainfall 0.00 in
Snow Depth Not available.
6:09 AM 7:32 PM
Waning Crescent, 18% visible
SPECI KMTW 280540Z AUTO 26003KT 3SM BR BKN004 OVC031 18/17 A3010 RMK AO2 CIG 002V006 PNO $
Pressure 30.10 in
Visibility 3.0 miles
Clouds Mostly Cloudy 400 ft
Overcast 3100 ft
Dew Point 63 °F
Humidity 95%
Rainfall 0.00 in
Snow Depth Not available.
6:09 AM 7:32 PM
Waning Crescent, 18% visible
SPECI KMTW 280540Z AUTO 26003KT 3SM BR BKN004 OVC031 18/17 A3010 RMK AO2 CIG 002V006 PNO $

10-Day Weather Forecast

Almanac

Astronomy

Aug. 28, 2016 Rise Set
Actual Time
Civil Twilight
Nautical Twilight
Astronomical Twilight
Moon
Length of Visible Light
Length of Day
Tomorrow will be .
, % of the Moon is Illuminated

Today's Extremes

State Highs State Lows

Community

WunderPhotos

Upload Photos

1,935,533 photos uploaded!

WunderBlog® & News

Nearby

Air Quality

  Air Quality AQ Index Pollutant
Not available.

Snow Depth

Station Depth Elevation

Earthquake Activity

City Distance Mag. Time & Date
Minimum magnitude displayed is 2.5.

Coastal Water Temperatures

Place Temperature

Stations

Nearby Weather Stations

Station Location Temp. Windchill Dew Point Humidity Wind Precip. Elev Updated Type
                   

Watches & Warnings

There are currently no watches in effect.